Time;durP1;ratioP1;P1;durP2;ratioP2;P2;SDS_P1;SDS_P2;PMS_P1;PMS_P2;Temp;Humidity;BMP_temperature;BMP_pressure;BME280_temperature;BME280_humidity;BME280_pressure;Samples;Min_cycle;Max_cycle;Signal;HPM_P1;HPM_P2
2021/07/20 00:02:12;;;;;;;16.20;8.30;;;;;;;14.53;78.89;102301.88;6127345;23;20008;-79
2021/07/20 00:04:37;;;;;;;16.13;7.85;;;;;;;14.45;79.02;102307.91;6127412;23;20014;-77
2021/07/20 00:07:03;;;;;;;15.65;8.30;;;;;;;14.39;79.31;102304.19;6126960;23;20010;-80
2021/07/20 00:09:29;;;;;;;14.93;7.47;;;;;;;14.32;79.87;102308.44;6128553;23;20065;-79
2021/07/20 00:11:54;;;;;;;15.32;8.55;;;;;;;14.29;79.95;102311.03;6101841;23;20079;-78
2021/07/20 00:14:19;;;;;;;15.63;9.07;;;;;;;14.26;79.92;102310.97;6128624;23;20009;-78
2021/07/20 00:17:05;;;;;;;16.60;9.02;;;;;;;14.21;80.17;102310.84;6128354;23;20002;-78
2021/07/20 00:19:31;;;;;;;16.13;8.07;;;;;;;14.16;80.57;102308.09;6127075;23;20013;-77
2021/07/20 00:21:56;;;;;;;18.67;8.68;;;;;;;14.15;80.60;102310.69;6127729;23;20018;-77
2021/07/20 00:24:22;;;;;;;14.25;7.28;;;;;;;14.07;81.43;102313.13;6127952;23;20045;-79
2021/07/20 00:26:47;;;;;;;15.45;8.07;;;;;;;13.99;81.59;102310.28;6127267;23;20013;-77
2021/07/20 00:29:33;;;;;;;16.08;8.77;;;;;;;13.95;82.09;102319.00;6128016;23;20006;-78
2021/07/20 00:31:58;;;;;;;17.25;8.80;;;;;;;13.89;82.18;102313.56;6127837;23;20079;-77
2021/07/20 00:34:24;;;;;;;16.98;8.50;;;;;;;13.82;82.88;102316.88;6127691;23;20037;-78
2021/07/20 00:36:49;;;;;;;16.10;8.98;;;;;;;13.77;82.75;102311.47;6127551;23;20029;-78
2021/07/20 00:39:15;;;;;;;15.88;9.35;;;;;;;13.74;82.92;102314.06;6127411;23;20037;-79
2021/07/20 00:41:40;;;;;;;15.65;8.20;;;;;;;13.74;82.97;102313.13;6126672;23;20014;-78
2021/07/20 00:44:06;;;;;;;17.85;8.93;;;;;;;13.73;82.83;102317.53;6127197;23;20033;-76
2021/07/20 00:46:34;;;;;;;15.60;8.50;;;;;;;13.73;83.15;102314.91;6128344;23;20006;-78
2021/07/20 00:48:59;;;;;;;16.65;8.73;;;;;;;13.73;83.37;102311.38;6130176;23;20001;-76
2021/07/20 00:51:25;;;;;;;16.88;7.95;;;;;;;13.72;83.27;102314.84;6129769;23;20024;-76
2021/07/20 00:54:10;;;;;;;18.77;9.10;;;;;;;13.69;83.43;102313.03;6129915;23;20013;-80
2021/07/20 00:56:36;;;;;;;18.50;8.25;;;;;;;13.69;83.30;102315.66;6129307;23;20029;-79
2021/07/20 00:59:02;;;;;;;18.10;8.35;;;;;;;13.70;83.08;102311.25;6103556;23;20013;-77
2021/07/20 01:01:27;;;;;;;17.17;8.25;;;;;;;13.70;83.45;102312.19;6130023;23;20002;-76
2021/07/20 01:04:13;;;;;;;16.70;8.80;;;;;;;13.72;83.65;102305.16;6104393;23;20045;-78
2021/07/20 01:07:18;;;;;;;16.33;8.00;;;;;;;13.75;83.33;102305.22;6129364;23;20354;-79
2021/07/20 01:10:06;;;;;;;16.67;8.65;;;;;;;13.80;82.95;102310.66;6129151;23;20090;-78
2021/07/20 01:12:37;;;;;;;16.15;8.10;;;;;;;13.85;82.99;102310.78;6130154;23;20013;-79
2021/07/20 01:15:04;;;;;;;16.20;9.15;;;;;;;13.91;82.92;102306.53;6130023;23;20080;-80
2021/07/20 01:17:50;;;;;;;17.50;8.77;;;;;;;13.98;82.49;102315.53;6130006;23;20009;-79
2021/07/20 01:20:18;;;;;;;14.82;8.13;;;;;;;14.02;82.66;102308.59;6129625;23;20037;-79
2021/07/20 01:23:17;;;;;;;18.38;8.93;;;;;;;14.02;82.61;102308.59;6129643;23;20426;-77
2021/07/20 01:26:03;;;;;;;18.85;9.00;;;;;;;14.04;82.56;102309.50;6130151;23;20022;-79
2021/07/20 01:28:48;;;;;;;18.13;8.88;;;;;;;14.00;82.44;102305.91;6130110;23;20020;-76
2021/07/20 01:31:38;;;;;;;20.08;9.27;;;;;;;14.05;82.18;102304.25;6129839;23;20005;-77
2021/07/20 01:34:06;;;;;;;18.08;9.07;;;;;;;14.02;82.50;102298.88;6128661;23;20365;-77
2021/07/20 01:36:33;;;;;;;17.88;9.55;;;;;;;14.03;82.44;102305.09;6130673;23;20018;-78
2021/07/20 01:39:19;;;;;;;17.60;8.98;;;;;;;14.02;82.41;102298.88;6104830;23;20032;-78
2021/07/20 01:41:45;;;;;;;15.80;9.43;;;;;;;14.05;82.14;102298.97;6129190;23;20113;-78
2021/07/20 01:44:31;;;;;;;14.88;7.55;;;;;;;14.07;82.20;102297.25;6129619;23;20407;-77
2021/07/20 01:46:57;;;;;;;16.67;8.63;;;;;;;14.06;82.12;102295.47;6129495;23;20014;-77
2021/07/20 01:50:02;;;;;;;17.38;9.02;;;;;;;14.03;82.23;102303.31;6104728;23;20092;-79
2021/07/20 01:52:28;;;;;;;16.88;8.48;;;;;;;13.97;82.65;102296.13;6129453;23;20092;-79
2021/07/20 01:54:54;;;;;;;21.25;9.38;;;;;;;13.89;82.83;102300.34;6128931;23;20043;-79
2021/07/20 01:57:19;;;;;;;18.75;9.63;;;;;;;13.80;83.08;102295.69;6130322;23;20378;-77
2021/07/20 01:59:46;;;;;;;18.73;10.20;;;;;;;13.71;83.45;102306.00;6129881;23;20359;-80
2021/07/20 02:02:29;;;;;;;23.20;10.30;;;;;;;13.65;83.72;102303.22;6129328;23;20052;-77
2021/07/20 02:08:28;;;;;;;19.65;9.88;;;;;;;13.53;83.97;102303.75;6010304;23;20026;-78
2021/07/20 02:10:56;;;;;;;;;;;;;;;13.50;84.11;102308.97;6010679;23;20110;-77
2021/07/20 02:13:25;;;;;;;22.25;9.77;;;;;;;13.52;83.79;102303.72;6073355;23;19909;-80
2021/07/20 02:16:12;;;;;;;26.02;11.18;;;;;;;13.48;84.06;102301.00;6128322;23;20085;-78
2021/07/20 02:18:42;;;;;;;19.23;10.52;;;;;;;13.49;83.69;102297.47;6128629;23;20084;-79
2021/07/20 02:21:08;;;;;;;21.40;10.07;;;;;;;13.51;83.59;102304.56;6128507;23;20010;-77
2021/07/20 02:23:35;;;;;;;21.08;10.85;;;;;;;13.52;83.30;102301.97;6129027;23;20378;-78
2021/07/20 02:26:01;;;;;;;24.77;11.65;;;;;;;13.48;83.35;102306.28;6128787;23;20016;-78
2021/07/20 02:28:48;;;;;;;22.77;11.15;;;;;;;13.43;83.22;102307.91;6129388;23;20014;-80
2021/07/20 02:31:35;;;;;;;24.73;11.20;;;;;;;13.39;83.42;102311.31;6129286;23;20026;-78
2021/07/20 02:34:06;;;;;;;23.08;10.80;;;;;;;13.38;83.38;102309.50;6129278;23;20010;-78
2021/07/20 02:36:31;;;;;;;24.98;11.45;;;;;;;13.36;83.28;102312.97;6128717;23;20337;-78
2021/07/20 02:38:58;;;;;;;24.48;11.43;;;;;;;13.34;83.21;102320.81;6128984;23;20010;-79
2021/07/20 02:42:04;;;;;;;23.90;10.98;;;;;;;13.35;83.14;102319.97;6129029;23;20010;-79
2021/07/20 02:44:30;;;;;;;23.60;10.88;;;;;;;13.34;83.02;102318.19;6127732;23;20014;-79
2021/07/20 02:47:18;;;;;;;24.90;12.02;;;;;;;13.28;83.10;102303.03;6128662;23;20097;-78
2021/07/20 02:49:44;;;;;;;20.60;10.60;;;;;;;13.26;83.38;102309.13;6106065;23;20017;-78
2021/07/20 02:52:30;;;;;;;25.70;11.45;;;;;;;13.28;83.05;102302.13;6128298;23;20060;-77
2021/07/20 02:54:58;;;;;;;22.40;11.70;;;;;;;13.27;83.13;102305.66;6128512;23;20013;-79
2021/07/20 02:57:24;;;;;;;21.58;11.52;;;;;;;13.29;82.79;102311.84;6129063;23;20017;-77
2021/07/20 02:59:52;;;;;;;25.63;11.23;;;;;;;13.26;83.49;102310.00;6128909;23;20037;-78
2021/07/20 03:02:27;;;;;;;27.67;11.90;;;;;;;13.21;83.38;102316.03;6128520;23;20037;-78
2021/07/20 03:04:52;;;;;;;21.00;11.38;;;;;;;13.17;83.40;102309.75;6102770;23;20017;-77
2021/07/20 03:07:40;;;;;;;25.23;11.82;;;;;;;13.16;83.03;102306.22;6127925;23;20419;-78
2021/07/20 03:10:09;;;;;;;27.85;11.57;;;;;;;13.15;83.20;102309.69;6126357;23;20093;-80
2021/07/20 03:12:35;;;;;;;25.02;12.45;;;;;;;13.16;83.23;102314.13;6127806;23;20061;-79
2021/07/20 03:15:21;;;;;;;26.48;11.68;;;;;;;13.15;83.13;102311.47;6129575;23;20013;-78
2021/07/20 03:17:47;;;;;;;29.48;12.05;;;;;;;13.15;83.02;102307.06;6128307;23;20061;-78
2021/07/20 03:20:15;;;;;;;24.52;11.93;;;;;;;13.15;83.21;102312.34;6127812;23;20009;-78
2021/07/20 03:22:42;;;;;;;27.35;11.10;;;;;;;13.14;82.75;102312.31;6127904;23;20061;-77
2021/07/20 03:25:11;;;;;;;26.50;11.32;;;;;;;13.12;82.99;102317.53;6128201;23;20084;-77
2021/07/20 03:27:58;;;;;;;28.38;11.88;;;;;;;13.09;83.06;102313.91;6127496;23;20010;-79
2021/07/20 03:30:26;;;;;;;21.98;10.90;;;;;;;13.07;83.13;102315.63;6127717;23;20361;-79
2021/07/20 03:33:12;;;;;;;21.70;10.70;;;;;;;13.03;83.37;102313.75;6127690;23;20024;-80
2021/07/20 03:35:38;;;;;;;29.95;11.25;;;;;;;12.98;83.40;102313.59;6127763;23;20014;-79
2021/07/20 03:38:05;;;;;;;26.50;12.75;;;;;;;12.98;83.15;102310.94;6101569;23;20040;-77
2021/07/20 03:40:51;;;;;;;27.10;11.55;;;;;;;12.95;83.35;102309.13;6127634;23;20089;-79
2021/07/20 03:43:18;;;;;;;26.27;11.15;;;;;;;12.96;83.18;102310.00;6127404;23;20434;-78
2021/07/20 03:46:04;;;;;;;25.73;11.60;;;;;;;12.93;83.42;102309.94;6127227;23;20010;-78
2021/07/20 03:48:53;;;;;;;22.70;10.35;;;;;;;12.93;83.19;102304.66;6127276;23;20010;-80
2021/07/20 03:51:40;;;;;;;22.38;10.70;;;;;;;12.95;83.09;102302.94;6128409;23;20025;-78
2021/07/20 03:54:08;;;;;;;21.25;11.20;;;;;;;12.97;83.05;102304.78;6127623;23;20014;-80
2021/07/20 03:56:35;;;;;;;26.02;10.82;;;;;;;13.00;82.95;102311.91;6127549;23;20021;-79
2021/07/20 03:59:08;;;;;;;22.02;10.82;;;;;;;13.04;82.77;102311.13;6128063;23;20006;-78
2021/07/20 04:01:37;;;;;;;24.75;11.02;;;;;;;13.08;82.48;102306.84;6128070;23;20017;-78
2021/07/20 04:04:23;;;;;;;26.02;10.82;;;;;;;13.10;82.63;102311.34;6128647;23;20386;-79
2021/07/20 04:07:12;;;;;;;29.33;11.48;;;;;;;13.11;82.84;102314.88;6126631;23;20010;-78
2021/07/20 04:09:58;;;;;;;23.10;10.45;;;;;;;13.14;82.68;102321.16;6127989;23;20014;-79
2021/07/20 04:12:24;;;;;;;27.77;11.73;;;;;;;13.14;82.58;102310.56;6128028;23;20017;-77
2021/07/20 04:14:53;;;;;;;24.48;11.90;;;;;;;13.15;82.43;102309.69;6127829;23;20006;-79
2021/07/20 04:17:39;;;;;;;22.73;11.50;;;;;;;13.22;82.66;102302.84;6102425;23;20013;-76
2021/07/20 04:20:25;;;;;;;27.40;11.75;;;;;;;13.24;82.29;102308.16;6127880;23;20426;-79
2021/07/20 04:23:12;;;;;;;26.23;12.20;;;;;;;13.25;82.33;102309.97;6129609;23;20013;-80
2021/07/20 04:25:42;;;;;;;24.30;10.70;;;;;;;13.27;82.23;102314.47;6129537;23;20341;-76
2021/07/20 04:28:08;;;;;;;21.02;10.60;;;;;;;13.29;82.13;102303.91;6129834;23;20345;-79
2021/07/20 04:30:37;;;;;;;21.00;11.80;;;;;;;13.32;81.99;102301.34;6129683;23;20013;-76
2021/07/20 04:33:03;;;;;;;24.92;11.70;;;;;;;13.31;82.35;102312.81;6128843;23;20014;-79
2021/07/20 04:35:29;;;;;;;26.67;11.70;;;;;;;13.35;82.07;102305.84;6130013;23;20016;-78
2021/07/20 04:38:35;;;;;;;25.23;11.40;;;;;;;13.40;81.74;102312.19;6130455;23;20118;-79
2021/07/20 04:41:00;;;;;;;26.45;11.80;;;;;;;13.43;81.53;102313.19;6129648;23;20085;-78
2021/07/20 04:43:27;;;;;;;23.48;11.45;;;;;;;13.47;81.45;102309.78;6129766;23;20053;-78
2021/07/20 04:46:13;;;;;;;28.45;11.52;;;;;;;13.51;81.73;102308.13;6129456;23;20005;-79
2021/07/20 04:48:40;;;;;;;23.75;11.68;;;;;;;13.59;81.53;102313.59;6128044;23;20006;-77
2021/07/20 04:51:06;;;;;;;24.58;10.95;;;;;;;13.70;80.29;102305.97;6128667;23;20034;-78
2021/07/20 04:53:34;;;;;;;27.83;11.70;;;;;;;13.80;79.88;102308.91;6103313;23;20006;-79
2021/07/20 04:55:59;;;;;;;26.30;11.90;;;;;;;13.89;79.74;102313.56;6129568;23;20002;-77
2021/07/20 04:58:25;;;;;;;24.00;11.38;;;;;;;13.97;79.20;102311.09;6129403;23;20097;-79
2021/07/20 05:01:10;;;;;;;25.95;12.32;;;;;;;14.05;79.82;102314.84;6129801;23;20006;-80
2021/07/20 05:03:39;;;;;;;20.27;10.30;;;;;;;14.12;80.04;102316.81;6128297;23;20337;-78
2021/07/20 05:06:25;;;;;;;26.73;11.25;;;;;;;14.22;79.44;102322.34;6130137;23;20006;-80
2021/07/20 05:09:10;;;;;;;22.48;10.45;;;;;;;14.32;78.57;102314.66;6129229;23;20010;-79
2021/07/20 05:11:56;;;;;;;22.58;10.90;;;;;;;14.44;78.28;102318.47;6129168;23;20042;-78
2021/07/20 05:14:21;;;;;;;20.40;11.05;;;;;;;14.53;77.46;102317.78;6129865;23;20326;-77
2021/07/20 05:16:48;;;;;;;19.35;9.70;;;;;;;14.63;76.81;102317.19;6129301;23;20006;-79
2021/07/20 05:19:14;;;;;;;23.67;10.68;;;;;;;14.74;76.45;102313.00;6128704;23;20013;-79
2021/07/20 05:22:00;;;;;;;22.38;10.38;;;;;;;14.85;76.16;102315.91;6128956;23;20110;-79
2021/07/20 05:25:05;;;;;;;18.90;10.07;;;;;;;14.98;74.84;102317.09;6128008;23;20421;-78
2021/07/20 05:27:53;;;;;;;21.38;10.10;;;;;;;15.12;74.84;102320.03;6128216;23;20010;-78
2021/07/20 05:30:40;;;;;;;22.98;10.65;;;;;;;15.23;73.29;102310.53;6127359;23;20385;-78
2021/07/20 05:33:06;;;;;;;20.05;10.23;;;;;;;15.44;73.01;102309.22;6128283;23;20039;-78
2021/07/20 05:35:55;;;;;;;21.08;10.05;;;;;;;15.70;71.49;102308.81;6129059;23;20002;-77
2021/07/20 05:38:22;;;;;;;18.15;9.88;;;;;;;15.88;72.56;102308.28;6130419;23;20081;-77
2021/07/20 05:41:12;;;;;;;17.40;9.68;;;;;;;16.10;70.26;102306.91;6129559;23;20014;-79
2021/07/20 05:43:58;;;;;;;16.00;9.70;;;;;;;16.41;70.04;102310.06;6128118;23;20010;-78
2021/07/20 05:46:45;;;;;;;17.92;9.60;;;;;;;16.70;70.33;102318.50;6127708;23;20010;-80
2021/07/20 05:49:50;;;;;;;15.57;8.30;;;;;;;16.96;65.96;102296.75;6128554;23;20085;-77
2021/07/20 05:52:17;;;;;;;16.63;8.68;;;;;;;17.29;65.04;102292.72;6128141;23;20061;-77
2021/07/20 05:55:22;;;;;;;16.88;8.82;;;;;;;17.45;63.87;102297.34;6129019;23;19989;-78
2021/07/20 05:57:49;;;;;;;14.07;8.15;;;;;;;17.74;64.31;102299.41;6127346;23;20014;-79
2021/07/20 06:00:36;;;;;;;15.30;9.15;;;;;;;18.01;65.23;102306.84;6128111;23;20098;-76
2021/07/20 06:03:02;;;;;;;17.17;8.85;;;;;;;18.42;62.83;102312.47;6125171;23;20013;-79
2021/07/20 06:05:28;;;;;;;16.38;8.48;;;;;;;18.72;61.53;102309.16;6125501;23;20006;-76
2021/07/20 06:08:14;;;;;;;16.13;7.93;;;;;;;19.17;60.15;102299.63;6124935;23;20020;-78
2021/07/20 06:10:41;;;;;;;16.20;8.20;;;;;;;19.48;58.07;102299.72;6123384;23;20441;-79
2021/07/20 06:13:07;;;;;;;15.60;9.18;;;;;;;19.60;59.18;102304.22;6126027;23;20014;-79
2021/07/20 06:15:33;;;;;;;13.95;8.68;;;;;;;19.80;57.65;102298.91;6125065;23;20006;-80
2021/07/20 06:17:59;;;;;;;12.43;8.25;;;;;;;20.20;56.92;102300.75;6127386;23;20006;-78
2021/07/20 06:20:27;;;;;;;15.52;9.02;;;;;;;20.21;56.16;102292.72;6127453;23;20486;-79
2021/07/20 06:22:55;;;;;;;17.48;8.43;;;;;;;20.55;55.57;102303.38;6100402;23;20014;-78
2021/07/20 06:25:24;;;;;;;18.50;7.95;;;;;;;20.54;55.69;102295.38;6124864;23;20089;-79
2021/07/20 06:27:51;;;;;;;13.90;7.57;;;;;;;20.82;54.92;102296.22;6125459;23;20433;-79
2021/07/20 06:30:19;;;;;;;11.20;7.55;;;;;;;21.32;53.51;102291.53;6128650;23;20013;-78
2021/07/20 06:32:45;;;;;;;13.85;8.48;;;;;;;21.41;56.70;102305.81;6126984;23;19998;-77
2021/07/20 06:35:15;;;;;;;12.90;7.03;;;;;;;21.24;52.87;102288.00;6127814;23;20022;-78
2021/07/20 06:38:02;;;;;;;10.10;7.45;;;;;;;21.47;52.84;102297.72;6126066;23;20036;-76
2021/07/20 06:40:48;;;;;;;10.57;7.25;;;;;;;21.15;51.46;102299.66;6124821;23;20010;-79
2021/07/20 06:43:14;;;;;;;10.32;7.20;;;;;;;21.61;51.34;102298.56;6126340;23;20085;-77
2021/07/20 06:46:00;;;;;;;10.80;6.95;;;;;;;21.73;52.47;102314.56;6128133;23;20002;-79
2021/07/20 06:48:27;;;;;;;14.30;7.75;;;;;;;22.21;50.91;102300.78;6126997;23;20441;-77
2021/07/20 06:51:32;;;;;;;10.10;6.63;;;;;;;22.43;48.85;102303.31;6101508;23;20017;-78
2021/07/20 06:54:20;;;;;;;11.35;6.85;;;;;;;22.34;50.06;102309.66;6124122;23;20020;-79
2021/07/20 06:56:51;;;;;;;10.93;6.80;;;;;;;22.26;48.19;102297.19;6125276;23;20040;-79
2021/07/20 06:59:18;;;;;;;10.73;7.22;;;;;;;21.97;48.24;102298.31;6126975;23;20016;-81
2021/07/20 07:01:45;;;;;;;10.02;6.47;;;;;;;22.39;47.19;102298.88;6126899;23;20362;-78
2021/07/20 07:04:35;;;;;;;11.20;7.07;;;;;;;22.18;50.23;102311.56;6126031;23;20357;-77
2021/07/20 07:07:02;;;;;;;10.82;7.45;;;;;;;22.02;47.83;102304.53;6125900;23;20005;-78
2021/07/20 07:09:30;;;;;;;9.25;6.47;;;;;;;22.37;48.55;102306.06;6126589;23;20002;-80
2021/07/20 07:12:17;;;;;;;8.43;5.72;;;;;;;22.55;46.92;102311.22;6127677;23;20041;-76
2021/07/20 07:14:44;;;;;;;9.65;6.35;;;;;;;22.29;47.55;102310.56;6127912;23;20017;-79
2021/07/20 07:17:10;;;;;;;10.05;6.63;;;;;;;22.47;46.67;102306.88;6128293;23;20013;-77
2021/07/20 07:19:35;;;;;;;11.88;7.35;;;;;;;22.48;47.86;102309.53;6126825;23;20075;-76
2021/07/20 07:22:02;;;;;;;13.82;6.95;;;;;;;22.41;46.55;102315.88;6127525;23;20041;-76
2021/07/20 07:24:29;;;;;;;10.98;6.97;;;;;;;22.36;46.71;102305.16;6126255;23;20017;-76
2021/07/20 07:26:57;;;;;;;9.45;6.20;;;;;;;22.35;47.19;102302.50;6099874;23;20018;-78
2021/07/20 07:29:44;;;;;;;10.98;5.93;;;;;;;22.18;46.04;102321.41;6126302;23;20010;-77
2021/07/20 07:32:11;;;;;;;12.25;7.10;;;;;;;22.14;47.93;102324.97;6126882;23;20010;-78
2021/07/20 07:34:37;;;;;;;10.25;7.07;;;;;;;21.37;48.45;102324.53;6127214;23;20053;-78
2021/07/20 07:37:04;;;;;;;8.73;6.78;;;;;;;21.76;50.37;102327.06;6101493;23;20373;-78
2021/07/20 07:39:31;;;;;;;10.82;6.30;;;;;;;21.95;47.74;102318.88;6124436;23;20041;-76
2021/07/20 07:41:57;;;;;;;10.50;6.50;;;;;;;22.08;48.84;102315.19;6127012;23;20014;-77
2021/07/20 07:45:03;;;;;;;9.57;6.20;;;;;;;22.35;50.14;102329.31;6101687;23;20448;-78
2021/07/20 07:47:48;;;;;;;8.00;5.40;;;;;;;22.35;46.45;102315.91;6125937;23;20020;-77
2021/07/20 07:50:14;;;;;;;9.70;6.47;;;;;;;22.37;49.26;102325.72;6127665;23;20017;-77
2021/07/20 07:52:41;;;;;;;9.13;6.13;;;;;;;22.61;45.96;102317.44;6126778;23;20457;-77
2021/07/20 07:55:27;;;;;;;9.27;6.72;;;;;;;22.37;46.77;102322.16;6126111;23;20009;-77
2021/07/20 07:57:53;;;;;;;10.40;6.72;;;;;;;22.59;49.77;102325.50;6126859;23;20006;-76
2021/07/20 08:00:19;;;;;;;9.15;5.85;;;;;;;22.72;46.52;102312.84;6131249;23;20041;-77
2021/07/20 08:02:51;;;;;;;10.02;6.53;;;;;;;22.27;46.54;102320.41;6127645;23;20030;-78
2021/07/20 08:05:17;;;;;;;12.45;6.50;;;;;;;21.87;47.97;102322.50;6127483;23;20021;-77
2021/07/20 08:08:03;;;;;;;8.90;6.10;;;;;;;21.97;47.78;102312.59;6125501;23;20002;-78
2021/07/20 08:10:51;;;;;;;11.43;6.50;;;;;;;22.18;49.78;102322.28;6124766;23;20059;-78
2021/07/20 08:13:38;;;;;;;8.57;6.07;;;;;;;22.26;46.81;102321.31;6105742;23;20018;-78
2021/07/20 08:16:06;;;;;;;10.02;6.47;;;;;;;22.28;47.35;102319.53;6126616;23;20037;-78
2021/07/20 08:18:32;;;;;;;11.25;6.32;;;;;;;22.21;48.72;102319.56;6127040;23;20006;-77
2021/07/20 08:21:07;;;;;;;8.43;6.22;;;;;;;22.06;48.51;102323.25;6127842;23;20036;-77
2021/07/20 08:23:53;;;;;;;11.70;6.13;;;;;;;22.31;48.62;102327.53;6126578;23;20017;-77
2021/07/20 08:26:59;;;;;;;8.95;6.47;;;;;;;22.22;48.84;102329.41;6127042;23;20013;-78
2021/07/20 08:29:46;;;;;;;12.00;6.75;;;;;;;22.68;50.10;102335.25;6125842;23;20010;-77
2021/07/20 08:32:34;;;;;;;18.52;6.50;;;;;;;22.89;47.81;102326.97;6127016;23;20018;-78
2021/07/20 08:35:24;;;;;;;10.52;6.40;;;;;;;22.90;45.50;102318.03;6127023;23;20018;-79
2021/07/20 08:37:51;;;;;;;10.73;6.00;;;;;;;23.21;46.31;102320.38;6125322;23;20064;-78
2021/07/20 08:40:41;;;;;;;11.77;6.85;;;;;;;22.72;46.56;102312.84;6124359;23;20033;-77
2021/07/20 08:43:33;;;;;;;11.43;6.75;;;;;;;22.30;46.43;102317.69;6126430;23;20367;-80
2021/07/20 08:46:20;;;;;;;10.02;6.55;;;;;;;22.65;48.77;102327.25;6127713;23;20005;-78
2021/07/20 08:49:23;;;;;;;9.10;6.75;;;;;;;23.01;47.77;102317.00;6127257;23;20433;-78
2021/07/20 08:51:59;;;;;;;11.30;5.82;;;;;;;23.35;48.93;102319.31;6125195;23;20303;-77
2021/07/20 08:54:27;;;;;;;10.60;6.75;;;;;;;23.35;46.89;102313.94;6126040;23;20556;-78
2021/07/20 08:56:53;;;;;;;9.77;5.63;;;;;;;23.60;44.93;102313.59;6125605;23;20018;-77
2021/07/20 08:59:49;;;;;;;10.63;6.38;;;;;;;23.79;46.31;102307.00;6126068;23;20116;-77
2021/07/20 09:02:46;;;;;;;13.25;7.20;;;;;;;23.92;42.95;102304.19;6125605;23;20006;-76
2021/07/20 09:05:11;;;;;;;10.93;5.47;;;;;;;24.39;44.28;102315.91;6127322;23;20037;-77
2021/07/20 09:08:01;;;;;;;9.57;6.35;;;;;;;24.66;42.73;102309.19;6127966;23;20065;-79
2021/07/20 09:10:40;;;;;;;9.63;6.53;;;;;;;25.36;44.69;102300.56;6126958;23;20009;-78
2021/07/20 09:13:11;;;;;;;8.75;6.32;;;;;;;25.64;40.96;102312.53;6127648;23;20038;-77
2021/07/20 09:15:42;;;;;;;9.05;6.45;;;;;;;25.98;40.34;102304.53;6129172;23;20089;-78
2021/07/20 09:18:18;;;;;;;9.73;6.68;;;;;;;26.43;41.26;102308.81;6128659;23;20028;-75
2021/07/20 09:20:50;;;;;;;10.18;6.03;;;;;;;26.58;38.31;102310.22;6127785;23;20010;-76
2021/07/20 09:23:42;;;;;;;9.70;6.88;;;;;;;26.52;38.16;102308.56;6126633;23;20018;-79
2021/07/20 09:26:32;;;;;;;10.40;7.10;;;;;;;27.08;37.25;102305.19;6127111;23;20041;-79
2021/07/20 09:29:41;;;;;;;10.80;6.93;;;;;;;26.85;41.36;102313.09;6125643;23;20014;-78
2021/07/20 09:32:08;;;;;;;9.90;6.88;;;;;;;26.71;37.98;102308.06;6126350;23;20009;-77
2021/07/20 09:34:42;;;;;;;10.82;7.03;;;;;;;27.07;37.09;102316.06;6128669;23;20013;-76
2021/07/20 09:37:10;;;;;;;10.43;7.63;;;;;;;26.69;36.93;102310.78;6129867;23;20037;-78
2021/07/20 09:39:45;;;;;;;9.48;6.95;;;;;;;26.36;39.85;102315.31;6127755;23;20010;-78
2021/07/20 09:42:28;;;;;;;10.50;7.63;;;;;;;27.22;38.19;102312.88;6128252;23;20057;-78
2021/07/20 09:45:05;;;;;;;10.35;7.20;;;;;;;26.57;38.45;102313.81;6128207;23;20338;-79
2021/07/20 09:47:44;;;;;;;9.82;6.28;;;;;;;27.08;39.60;102315.13;6128677;23;20006;-78
2021/07/20 09:50:17;;;;;;;11.93;7.95;;;;;;;26.71;37.52;102302.66;6129208;23;20030;-79
2021/07/20 09:52:58;;;;;;;10.68;7.55;;;;;;;26.77;38.71;102310.63;6128836;23;20002;-76
2021/07/20 09:55:45;;;;;;;10.75;6.93;;;;;;;27.13;37.30;102299.69;6126705;23;20013;-78
2021/07/20 09:58:32;;;;;;;10.55;6.85;;;;;;;26.69;40.35;102307.22;6127133;23;20009;-79
2021/07/20 10:01:36;;;;;;;11.23;7.15;;;;;;;26.88;40.83;102307.59;6126758;23;20009;-80
2021/07/20 10:04:08;;;;;;;9.68;7.07;;;;;;;27.20;38.89;102303.97;6127226;23;20006;-81
2021/07/20 10:06:55;;;;;;;14.63;6.97;;;;;;;26.89;39.74;102309.38;6127670;23;20117;-79
2021/07/20 10:09:43;;;;;;;10.00;7.03;;;;;;;26.15;38.87;102305.94;6125942;23;20341;-77
2021/07/20 10:12:20;;;;;;;10.65;6.35;;;;;;;27.34;36.66;102303.53;6127645;23;20006;-79
2021/07/20 10:15:00;;;;;;;11.13;6.70;;;;;;;27.64;38.19;102302.66;6128518;23;20068;-80
2021/07/20 10:17:49;;;;;;;10.15;6.68;;;;;;;27.96;35.15;102295.28;6125932;23;20488;-77
2021/07/20 10:20:20;;;;;;;8.73;6.28;;;;;;;28.42;36.30;102301.88;6127059;23;20013;-80
2021/07/20 10:22:51;;;;;;;23.70;6.88;;;;;;;28.74;33.51;102289.88;6126086;23;20010;-78
2021/07/20 10:25:39;;;;;;;10.93;6.38;;;;;;;27.95;35.91;102290.84;6127292;23;20064;-80
2021/07/20 10:28:28;;;;;;;10.13;6.05;;;;;;;28.96;33.87;102288.19;6126017;23;20010;-80
2021/07/20 10:31:06;;;;;;;9.93;6.10;;;;;;;28.87;34.37;102287.59;6125856;23;20006;-81
2021/07/20 10:33:59;;;;;;;8.07;5.68;;;;;;;28.24;34.67;102287.13;6102712;23;20394;-80
2021/07/20 10:36:53;;;;;;;9.52;6.20;;;;;;;29.43;32.25;102285.47;6127803;23;20014;-80
2021/07/20 10:39:29;;;;;;;12.18;6.75;;;;;;;28.98;32.73;102291.75;6114824;23;20014;-80
2021/07/20 10:42:18;;;;;;;8.32;5.93;;;;;;;28.42;35.07;102285.63;6127970;23;20014;-79
2021/07/20 10:44:46;;;;;;;11.32;6.40;;;;;;;27.88;35.35;102279.34;6127290;23;20017;-80
2021/07/20 10:47:14;;;;;;;6.90;5.88;;;;;;;27.87;35.34;102278.41;6127312;23;20076;-79
2021/07/20 10:49:55;;;;;;;9.88;5.75;;;;;;;28.76;34.14;102284.41;6127318;23;20348;-80
2021/07/20 10:52:20;;;;;;;11.38;6.78;;;;;;;29.64;32.75;102277.41;6127701;23;20433;-78
2021/07/20 10:55:13;;;;;;;7.03;5.85;;;;;;;29.67;32.52;102270.03;6126400;23;20053;-78
2021/07/20 10:58:16;;;;;;;8.60;6.47;;;;;;;29.43;32.49;102270.06;6127760;23;20013;-80
2021/07/20 11:01:18;;;;;;;11.68;7.15;;;;;;;29.09;33.09;102271.38;6126040;23;20060;-79
2021/07/20 11:03:55;;;;;;;10.40;7.00;;;;;;;28.78;33.62;102271.69;6126762;23;20060;-79
2021/07/20 11:06:23;;;;;;;8.02;5.80;;;;;;;29.42;33.20;102275.56;6127024;23;20037;-80
2021/07/20 11:08:53;;;;;;;9.07;6.57;;;;;;;28.86;34.11;102283.13;6125023;23;20010;-79
2021/07/20 11:11:40;;;;;;;8.07;6.57;;;;;;;29.52;32.33;102282.41;6125959;23;20298;-79
2021/07/20 11:14:07;;;;;;;11.15;6.50;;;;;;;28.70;34.17;102269.25;6126753;23;20017;-80
2021/07/20 11:16:53;;;;;;;9.75;6.32;;;;;;;28.53;33.87;102266.28;6126657;23;20014;-78
2021/07/20 11:19:19;;;;;;;9.23;6.97;;;;;;;28.30;34.66;102275.19;6126598;23;20141;-79
2021/07/20 11:21:46;;;;;;;11.55;7.18;;;;;;;28.05;35.38;102265.25;6126327;23;20021;-78
2021/07/20 11:24:15;;;;;;;9.52;7.40;;;;;;;28.57;34.65;102266.09;6126819;23;20448;-77
2021/07/20 11:26:41;;;;;;;9.68;6.53;;;;;;;29.09;35.83;102268.69;6127321;23;20093;-81
2021/07/20 11:29:07;;;;;;;11.45;6.38;;;;;;;29.56;33.13;102270.47;6126313;23;20010;-79
2021/07/20 11:31:46;;;;;;;11.02;6.80;;;;;;;29.57;32.54;102261.41;6127665;23;20006;-76
2021/07/20 11:34:36;;;;;;;11.93;6.75;;;;;;;28.89;35.68;102263.16;6127775;23;20012;-79
2021/07/20 11:37:11;;;;;;;12.60;7.55;;;;;;;28.26;36.88;102264.50;6126632;23;20005;-80
2021/07/20 11:39:45;;;;;;;11.82;7.20;;;;;;;28.75;37.57;102261.84;6100872;23;20014;-78
2021/07/20 11:42:22;;;;;;;8.38;7.28;;;;;;;28.93;33.75;102249.44;6126022;23;20021;-80
2021/07/20 11:45:09;;;;;;;10.95;7.38;;;;;;;27.51;36.26;102262.50;6125691;23;20390;-79
2021/07/20 11:47:49;;;;;;;10.55;7.90;;;;;;;27.65;36.55;102263.88;6126158;23;20018;-78
2021/07/20 11:50:14;;;;;;;10.52;7.18;;;;;;;28.12;38.23;102260.50;6127412;23;20081;-79
2021/07/20 11:52:46;;;;;;;10.30;7.22;;;;;;;28.32;34.59;102265.22;6126904;23;20009;-78
2021/07/20 11:55:36;;;;;;;10.80;7.55;;;;;;;28.58;37.40;102265.16;6126353;23;20045;-80
2021/07/20 11:58:01;;;;;;;8.57;6.93;;;;;;;28.65;34.64;102256.81;6126262;23;20066;-79
2021/07/20 12:00:58;;;;;;;10.68;8.10;;;;;;;28.27;36.38;102255.44;6125891;23;20005;-77
2021/07/20 12:03:49;;;;;;;11.43;6.80;;;;;;;27.77;35.92;102250.81;6126556;23;20081;-79